Terminal Aerodrome Forecast
Issued by NWS

Home | Current Version | Previous Version | Text Only | Print | Product List | Glossary On
Versions: 1 2 3 4 5 6 7 8 9 10 11 12 13 14 15
000
FTUS43 KMPX 041733
TAFRNH
TAF
KRNH 041733Z 0418/0518 02008KT P6SM FEW300
     FM050200 05004KT P6SM BKN150
     FM051000 09007KT P6SM OVC060
     FM051500 12012KT P6SM VCSH SCT030 OVC050=

USA.gov is the U.S. government's official web portal to all federal, state and local government web resources and services.